Time;durP1;ratioP1;P1;durP2;ratioP2;P2;SDS_P1;SDS_P2;PMS_P1;PMS_P2;Temp;Humidity;BMP_temperature;BMP_pressure;BME280_temperature;BME280_humidity;BME280_pressure;Samples;Min_cycle;Max_cycle;Signal;HPM_P1;HPM_P2
2021/10/29 00:02:23;;;;;;;9.90;8.77;;;10.20;99.90;;;;;;5086669;28;20238;-64
2021/10/29 00:04:54;;;;;;;12.47;11.00;;;10.10;99.90;;;;;;5086125;28;20605;-64
2021/10/29 00:07:22;;;;;;;12.87;10.90;;;10.20;99.90;;;;;;5086599;28;20238;-64
2021/10/29 00:09:50;;;;;;;11.10;9.80;;;10.20;99.90;;;;;;5085936;28;20244;-64
2021/10/29 00:12:21;;;;;;;11.50;9.83;;;10.10;99.90;;;;;;5087149;28;20269;-64
2021/10/29 00:14:50;;;;;;;12.87;10.77;;;10.10;99.90;;;;;;5086143;28;20690;-65
2021/10/29 00:17:18;;;;;;;10.57;9.47;;;10.10;99.90;;;;;;5086359;28;20475;-65
2021/10/29 00:19:46;;;;;;;10.13;9.07;;;10.00;99.90;;;;;;5085415;28;20814;-65
2021/10/29 00:22:16;;;;;;;11.00;9.80;;;10.00;99.90;;;;;;5086708;28;20227;-65
2021/10/29 00:24:44;;;;;;;11.67;9.30;;;10.00;99.90;;;;;;5085868;28;20333;-65
2021/10/29 00:27:13;;;;;;;12.70;9.67;;;10.00;99.90;;;;;;5085871;28;20235;-65
2021/10/29 00:29:41;;;;;;;10.37;9.37;;;10.00;99.90;;;;;;5085836;28;20262;-65
2021/10/29 00:32:09;;;;;;;11.23;10.13;;;10.00;99.90;;;;;;5086551;28;20230;-64
2021/10/29 00:34:37;;;;;;;11.13;10.00;;;10.00;99.90;;;;;;5086252;28;20230;-65
2021/10/29 00:37:08;;;;;;;12.33;11.03;;;10.00;99.90;;;;;;5085953;28;20230;-65
2021/10/29 00:39:37;;;;;;;11.50;9.93;;;9.90;99.90;;;;;;5087964;28;20256;-64
2021/10/29 00:42:06;;;;;;;11.93;10.73;;;9.90;99.90;;;;;;5090459;28;20250;-64
2021/10/29 00:44:34;;;;;;;12.80;11.50;;;9.80;99.90;;;;;;5090146;28;20230;-64
2021/10/29 00:47:02;;;;;;;14.50;11.37;;;9.80;99.90;;;;;;5090353;28;20230;-64
2021/10/29 00:49:31;;;;;;;12.87;11.53;;;9.80;99.90;;;;;;5082540;28;20265;-64
2021/10/29 00:51:59;;;;;;;14.70;11.90;;;9.80;99.90;;;;;;5090446;28;20237;-65
2021/10/29 00:54:27;;;;;;;13.67;12.27;;;9.80;99.90;;;;;;5089722;28;20313;-64
2021/10/29 00:57:00;;;;;;;15.97;12.70;;;9.80;99.90;;;;;;5090298;28;20598;-64
2021/10/29 00:59:29;;;;;;;13.63;12.23;;;9.70;99.90;;;;;;5089061;28;20946;-64
2021/10/29 01:01:57;;;;;;;16.00;12.70;;;9.80;99.90;;;;;;5090236;28;20246;-65
2021/10/29 01:04:27;;;;;;;15.43;12.77;;;9.80;99.90;;;;;;5090139;28;20845;-64
2021/10/29 01:06:55;;;;;;;15.23;13.10;;;9.70;99.90;;;;;;5090121;28;20819;-64
2021/10/29 01:09:23;;;;;;;13.63;12.20;;;9.70;99.90;;;;;;5088895;28;20230;-64
2021/10/29 01:11:51;;;;;;;13.57;12.13;;;9.70;99.90;;;;;;5085313;28;20767;-65
2021/10/29 01:14:20;;;;;;;17.23;12.33;;;9.70;99.90;;;;;;5089780;28;20603;-64
2021/10/29 01:16:48;;;;;;;16.00;12.67;;;9.70;99.90;;;;;;5084492;28;20289;-64
2021/10/29 01:19:17;;;;;;;16.97;14.07;;;9.70;99.90;;;;;;5089035;28;20226;-64
2021/10/29 01:21:46;;;;;;;16.87;13.47;;;9.60;99.90;;;;;;5089167;28;20701;-64
2021/10/29 01:24:14;;;;;;;15.30;13.53;;;9.60;99.90;;;;;;5089166;28;20234;-64
2021/10/29 01:26:42;;;;;;;14.73;13.20;;;9.60;99.90;;;;;;5089509;28;20265;-65
2021/10/29 01:29:10;;;;;;;17.27;14.00;;;9.60;99.90;;;;;;5088780;28;20235;-65
2021/10/29 01:31:38;;;;;;;16.23;13.67;;;9.50;99.90;;;;;;5089798;28;20698;-64
2021/10/29 01:34:07;;;;;;;17.50;13.50;;;9.60;99.90;;;;;;5089262;28;20836;-64
2021/10/29 01:36:35;;;;;;;17.20;13.50;;;9.50;99.90;;;;;;5089172;28;20284;-64
2021/10/29 01:39:04;;;;;;;17.43;13.67;;;9.60;99.90;;;;;;5088547;28;20270;-64
2021/10/29 01:41:32;;;;;;;14.70;13.07;;;9.50;99.90;;;;;;5089654;28;20237;-65
2021/10/29 01:44:02;;;;;;;16.90;13.67;;;9.50;99.90;;;;;;5089400;28;20233;-65
2021/10/29 01:46:30;;;;;;;15.57;13.70;;;9.50;99.90;;;;;;5082210;28;20449;-64
2021/10/29 01:48:59;;;;;;;18.43;13.50;;;9.40;99.90;;;;;;5088607;28;20785;-64
2021/10/29 01:51:27;;;;;;;14.77;13.17;;;9.40;99.90;;;;;;5088724;28;20328;-64
2021/10/29 01:53:55;;;;;;;19.77;14.47;;;9.40;99.90;;;;;;5089052;28;20732;-64
2021/10/29 01:56:25;;;;;;;17.57;14.80;;;9.50;99.90;;;;;;5089033;28;20326;-64
2021/10/29 01:58:53;;;;;;;17.77;15.00;;;9.40;99.90;;;;;;5088283;28;20231;-65
2021/10/29 02:01:21;;;;;;;16.77;14.60;;;9.40;99.90;;;;;;5087539;28;20291;-65
2021/10/29 02:03:49;;;;;;;14.97;13.43;;;9.40;99.90;;;;;;5088887;28;20284;-64
2021/10/29 02:06:18;;;;;;;16.10;13.40;;;9.40;99.90;;;;;;5088800;28;20258;-64
2021/10/29 02:08:46;;;;;;;16.33;13.60;;;9.40;99.90;;;;;;5087785;28;20326;-65
2021/10/29 02:11:15;;;;;;;16.53;14.07;;;9.30;99.90;;;;;;5088208;28;20261;-65
2021/10/29 02:13:45;;;;;;;17.20;14.20;;;9.30;99.90;;;;;;5088492;28;20234;-65
2021/10/29 02:16:13;;;;;;;17.27;14.80;;;9.30;99.90;;;;;;5086889;28;20776;-65
2021/10/29 02:18:41;;;;;;;16.83;13.83;;;9.20;99.90;;;;;;5087453;28;20612;-64
2021/10/29 02:21:09;;;;;;;17.57;14.17;;;9.30;99.90;;;;;;5088621;28;20572;-65
2021/10/29 02:23:37;;;;;;;28.30;16.87;;;9.30;99.90;;;;;;5088314;28;20310;-65
2021/10/29 02:26:05;;;;;;;17.70;14.67;;;9.30;99.90;;;;;;5070682;28;20798;-65
2021/10/29 02:28:33;;;;;;;16.43;14.73;;;9.30;99.90;;;;;;5087077;28;20231;-65
2021/10/29 02:31:03;;;;;;;18.93;15.00;;;9.20;99.90;;;;;;5086157;28;20877;-64
2021/10/29 02:33:31;;;;;;;18.83;15.13;;;9.20;99.90;;;;;;5078215;28;20246;-64
2021/10/29 02:35:59;;;;;;;18.23;15.43;;;9.10;99.90;;;;;;5087218;28;20265;-64
2021/10/29 02:38:28;;;;;;;20.43;15.83;;;9.20;99.90;;;;;;5085613;28;20321;-65
2021/10/29 02:40:56;;;;;;;19.83;15.67;;;9.10;99.90;;;;;;5087024;28;20239;-65
2021/10/29 02:43:25;;;;;;;18.80;16.07;;;9.10;99.90;;;;;;5086470;28;20797;-64
2021/10/29 02:45:54;;;;;;;17.90;16.00;;;9.10;99.90;;;;;;5086851;28;20627;-64
2021/10/29 02:48:23;;;;;;;18.40;16.27;;;9.10;99.90;;;;;;5085844;28;20260;-64
2021/10/29 02:50:56;;;;;;;20.73;16.83;;;9.10;99.90;;;;;;5086428;28;20709;-64
2021/10/29 02:53:25;;;;;;;18.93;16.93;;;9.10;99.90;;;;;;5086195;28;20808;-64
2021/10/29 02:55:53;;;;;;;18.33;16.30;;;9.10;99.90;;;;;;5086787;28;20857;-65
2021/10/29 02:58:21;;;;;;;18.83;16.83;;;9.10;99.90;;;;;;5087576;28;20652;-64
2021/10/29 03:00:49;;;;;;;20.20;15.90;;;9.10;99.90;;;;;;5087751;28;20227;-65
2021/10/29 03:03:17;;;;;;;19.33;15.80;;;9.00;99.90;;;;;;5086069;28;20306;-64
2021/10/29 03:05:47;;;;;;;19.20;16.57;;;9.10;99.90;;;;;;5087081;28;20230;-64
2021/10/29 03:08:15;;;;;;;21.20;16.27;;;9.10;99.90;;;;;;5086094;28;20230;-64
2021/10/29 03:10:43;;;;;;;19.50;17.23;;;9.10;99.90;;;;;;5087405;28;20590;-64
2021/10/29 03:13:11;;;;;;;20.73;17.93;;;9.00;99.90;;;;;;5087371;28;20635;-65
2021/10/29 03:15:40;;;;;;;21.67;18.03;;;9.00;99.90;;;;;;5087214;28;20226;-64
2021/10/29 03:18:08;;;;;;;21.03;16.83;;;9.00;99.90;;;;;;5087113;28;20328;-64
2021/10/29 03:20:36;;;;;;;18.83;16.83;;;9.00;99.90;;;;;;5086541;28;20223;-64
2021/10/29 03:23:05;;;;;;;21.80;17.37;;;9.00;99.90;;;;;;5087038;28;20273;-64
2021/10/29 03:25:34;;;;;;;19.87;17.30;;;9.00;99.90;;;;;;5087147;28;20226;-64
2021/10/29 03:28:02;;;;;;;19.77;16.23;;;9.00;99.90;;;;;;5086831;28;20313;-64
2021/10/29 03:30:30;;;;;;;19.40;17.40;;;8.90;99.90;;;;;;5083007;28;20252;-65
2021/10/29 03:32:58;;;;;;;20.90;18.07;;;8.90;99.90;;;;;;5087459;28;20234;-64
2021/10/29 03:35:27;;;;;;;18.93;16.93;;;8.90;99.90;;;;;;5085795;28;20284;-64
2021/10/29 03:38:13;;;;;;;21.00;18.47;;;8.90;99.90;;;;;;5086652;28;20241;-64
2021/10/29 03:40:49;;;;;;;20.50;17.60;;;8.90;99.90;;;;;;5080488;28;20257;-64
2021/10/29 03:43:22;;;;;;;20.47;17.90;;;8.90;99.90;;;;;;5086741;28;20703;-64
2021/10/29 03:45:53;;;;;;;18.43;16.03;;;8.80;99.90;;;;;;5086635;28;20399;-64
2021/10/29 03:48:28;;;;;;;19.60;17.40;;;8.80;99.90;;;;;;5085797;28;20524;-64
2021/10/29 03:51:03;;;;;;;19.43;17.33;;;8.80;99.90;;;;;;5082781;28;20230;-64
2021/10/29 03:53:38;;;;;;;21.87;18.70;;;8.80;99.90;;;;;;5080787;28;20329;-64
2021/10/29 03:56:17;;;;;;;19.40;17.40;;;8.70;99.90;;;;;;5087027;28;20483;-64
2021/10/29 03:58:45;;;;;;;21.90;18.40;;;8.70;99.90;;;;;;5086128;28;20234;-64
2021/10/29 04:01:14;;;;;;;23.53;17.83;;;8.70;99.90;;;;;;5086806;28;20753;-65
2021/10/29 04:03:42;;;;;;;22.40;17.63;;;8.60;99.90;;;;;;5085551;28;20691;-65
2021/10/29 04:06:11;;;;;;;23.80;19.17;;;8.60;99.90;;;;;;5076713;28;20292;-64
2021/10/29 04:08:39;;;;;;;22.83;18.10;;;8.60;99.90;;;;;;5068363;28;20710;-64
2021/10/29 04:11:09;;;;;;;23.30;18.93;;;8.60;99.90;;;;;;5066743;28;20237;-64
2021/10/29 04:13:39;;;;;;;23.57;18.33;;;8.60;99.90;;;;;;5067921;28;20623;-64
2021/10/29 04:16:08;;;;;;;20.83;17.77;;;8.60;99.90;;;;;;5068487;28;20265;-64
2021/10/29 04:18:37;;;;;;;22.00;17.60;;;8.60;99.90;;;;;;5068097;28;20309;-64
2021/10/29 04:21:06;;;;;;;24.10;19.03;;;8.50;99.90;;;;;;5066176;28;20477;-64
2021/10/29 04:23:35;;;;;;;22.17;19.77;;;8.50;99.90;;;;;;5067217;28;20325;-64
2021/10/29 04:26:06;;;;;;;21.07;18.73;;;8.50;99.90;;;;;;5068189;28;20695;-64
2021/10/29 04:28:35;;;;;;;22.40;18.53;;;8.50;99.90;;;;;;5067919;28;20303;-64
2021/10/29 04:31:05;;;;;;;21.80;18.77;;;8.50;99.90;;;;;;5064927;28;20226;-64
2021/10/29 04:33:34;;;;;;;24.03;18.63;;;8.50;99.90;;;;;;5067387;28;20246;-64
2021/10/29 04:36:02;;;;;;;20.87;18.27;;;8.50;99.90;;;;;;5068340;28;21311;-65
2021/10/29 04:38:30;;;;;;;21.50;17.40;;;8.50;99.90;;;;;;5067296;28;20330;-64
2021/10/29 04:40:58;;;;;;;21.03;18.67;;;8.50;99.90;;;;;;5065301;28;20260;-65
2021/10/29 04:43:27;;;;;;;20.70;17.53;;;8.50;99.90;;;;;;5068400;28;20235;-64
2021/10/29 04:45:56;;;;;;;20.90;17.47;;;8.50;99.90;;;;;;5068740;28;20242;-64
2021/10/29 04:48:25;;;;;;;22.57;18.47;;;8.50;99.90;;;;;;5066631;28;20234;-63
2021/10/29 04:50:56;;;;;;;21.33;18.13;;;8.50;99.90;;;;;;5065998;28;20244;-64
2021/10/29 04:53:25;;;;;;;22.03;18.20;;;8.50;99.90;;;;;;5068127;28;20244;-65
2021/10/29 04:55:54;;;;;;;23.30;18.63;;;8.40;99.90;;;;;;5067679;28;20238;-63
2021/10/29 04:58:22;;;;;;;20.93;18.00;;;8.40;99.90;;;;;;5067063;28;20367;-64
2021/10/29 05:00:50;;;;;;;22.00;18.63;;;8.40;99.90;;;;;;5064754;28;20230;-64
2021/10/29 05:03:20;;;;;;;23.53;18.43;;;8.40;99.90;;;;;;5068295;28;20226;-64
2021/10/29 05:05:48;;;;;;;25.07;18.83;;;8.40;99.90;;;;;;5049815;28;102520;-64
2021/10/29 05:08:16;;;;;;;20.17;18.07;;;8.40;99.90;;;;;;5066872;28;20292;-64
2021/10/29 05:10:44;;;;;;;20.23;17.83;;;8.30;99.90;;;;;;5064384;28;20903;-64
2021/10/29 05:13:12;;;;;;;21.90;17.93;;;8.40;99.90;;;;;;5066526;28;20714;-64
2021/10/29 05:15:41;;;;;;;20.70;17.60;;;8.40;99.90;;;;;;5068032;28;20238;-65
2021/10/29 05:18:13;;;;;;;20.60;17.67;;;8.40;99.90;;;;;;5067232;28;20328;-63
2021/10/29 05:20:43;;;;;;;24.10;18.57;;;8.30;99.90;;;;;;5063705;28;20260;-64
2021/10/29 05:23:11;;;;;;;21.97;17.87;;;8.30;99.90;;;;;;5064736;28;20355;-64
2021/10/29 05:25:40;;;;;;;21.90;18.00;;;8.30;99.90;;;;;;5066780;28;20238;-64
2021/10/29 05:28:09;;;;;;;19.83;16.60;;;8.40;99.90;;;;;;5069467;28;20590;-64
2021/10/29 05:30:37;;;;;;;21.87;17.17;;;8.30;99.90;;;;;;5065619;28;20445;-64
2021/10/29 05:33:06;;;;;;;22.37;18.50;;;8.30;99.90;;;;;;5070090;28;20736;-64
2021/10/29 05:35:34;;;;;;;23.80;17.93;;;8.30;99.90;;;;;;5070197;28;20234;-64
2021/10/29 05:38:04;;;;;;;21.07;17.40;;;8.30;99.90;;;;;;5070761;28;20238;-64
2021/10/29 05:40:32;;;;;;;20.30;17.63;;;8.20;99.90;;;;;;5067275;28;20234;-64
2021/10/29 05:43:00;;;;;;;25.47;19.47;;;8.20;99.90;;;;;;5071647;28;20710;-64
2021/10/29 05:45:28;;;;;;;22.83;17.70;;;8.20;99.90;;;;;;5071285;28;20243;-65
2021/10/29 05:48:01;;;;;;;21.93;17.97;;;8.20;99.90;;;;;;5072086;28;20689;-64
2021/10/29 05:50:29;;;;;;;21.03;17.90;;;8.30;99.90;;;;;;5067450;28;20255;-64
2021/10/29 05:52:58;;;;;;;20.33;16.23;;;8.30;99.90;;;;;;5070274;28;20826;-64
2021/10/29 05:55:28;;;;;;;21.23;17.10;;;8.20;99.90;;;;;;5071322;28;20891;-64
2021/10/29 05:57:58;;;;;;;19.77;16.77;;;8.30;99.90;;;;;;5069311;28;20242;-63
2021/10/29 06:00:29;;;;;;;20.90;16.67;;;8.20;99.90;;;;;;5066312;28;20557;-64
2021/10/29 06:03:03;;;;;;;21.27;16.63;;;8.20;99.90;;;;;;5070065;28;20234;-64
2021/10/29 06:05:32;;;;;;;22.00;16.57;;;8.20;99.90;;;;;;5069363;28;20268;-64
2021/10/29 06:08:00;;;;;;;21.33;16.77;;;8.20;99.90;;;;;;5069917;28;20258;-63
2021/10/29 06:10:29;;;;;;;21.93;16.23;;;8.20;99.90;;;;;;5066666;28;20234;-63
2021/10/29 06:12:58;;;;;;;22.17;17.03;;;8.20;99.90;;;;;;5069562;28;20315;-65
2021/10/29 06:15:26;;;;;;;22.13;17.17;;;8.20;99.90;;;;;;5068769;28;20730;-64
2021/10/29 06:17:54;;;;;;;19.83;15.97;;;8.20;99.90;;;;;;5068861;28;20249;-63
2021/10/29 06:20:22;;;;;;;19.53;15.97;;;8.20;99.90;;;;;;5066641;28;20238;-64
2021/10/29 06:22:52;;;;;;;22.10;16.50;;;8.20;99.90;;;;;;5068787;28;20234;-64
2021/10/29 06:25:25;;;;;;;21.47;16.60;;;8.20;99.90;;;;;;5067153;28;20249;-63
2021/10/29 06:28:19;;;;;;;19.80;16.30;;;8.20;99.90;;;;;;5068627;28;21168;-64
2021/10/29 06:30:49;;;;;;;24.87;17.13;;;8.20;99.90;;;;;;5064424;28;20661;-64
2021/10/29 06:33:19;;;;;;;22.43;16.00;;;8.20;99.90;;;;;;5067906;28;20253;-63
2021/10/29 06:35:48;;;;;;;22.40;15.77;;;8.20;99.90;;;;;;5067829;28;20800;-63
2021/10/29 06:38:17;;;;;;;20.93;15.27;;;8.30;99.90;;;;;;5065805;28;20947;-64
2021/10/29 06:40:48;;;;;;;22.47;16.37;;;8.30;99.90;;;;;;5064906;28;20234;-65
2021/10/29 06:43:23;;;;;;;20.57;15.07;;;8.40;99.90;;;;;;5067779;28;20231;-63
2021/10/29 06:46:10;;;;;;;19.50;15.60;;;8.40;99.90;;;;;;5067425;28;20664;-64
2021/10/29 06:48:50;;;;;;;19.20;15.43;;;8.40;99.90;;;;;;5066480;28;20713;-63
2021/10/29 06:59:50;;;;;;;20.03;14.43;;;8.50;99.90;;;;;;5065383;28;20333;-64
2021/10/29 07:41:24;;;;;;;20.87;14.67;;;9.40;99.90;;;;;;5055784;28;20242;-64
2021/10/29 07:43:54;;;;;;;21.30;15.30;;;9.50;99.90;;;;;;5064552;28;20904;-64
2021/10/29 07:46:23;;;;;;;21.03;14.53;;;9.60;99.90;;;;;;5056447;28;20243;-64
2021/10/29 07:48:52;;;;;;;19.27;15.23;;;9.80;99.90;;;;;;5054479;28;20318;-64
2021/10/29 07:51:20;;;;;;;19.67;14.70;;;9.90;99.90;;;;;;5059024;28;20239;-63
2021/10/29 07:53:49;;;;;;;19.63;15.40;;;10.00;99.90;;;;;;5064457;28;20258;-64
2021/10/29 07:56:17;;;;;;;20.40;15.10;;;10.10;99.90;;;;;;5062570;28;20444;-64
2021/10/29 07:58:45;;;;;;;21.90;15.07;;;10.30;99.90;;;;;;5057366;28;20454;-64
2021/10/29 08:01:13;;;;;;;19.40;14.17;;;10.40;99.90;;;;;;5057547;28;20235;-64
2021/10/29 08:03:42;;;;;;;20.00;15.23;;;10.50;99.90;;;;;;5065339;28;20321;-64
2021/10/29 08:06:11;;;;;;;21.50;15.27;;;10.50;99.90;;;;;;5062179;28;20251;-64
2021/10/29 08:08:39;;;;;;;18.83;14.50;;;10.60;99.90;;;;;;5052958;28;20262;-64
2021/10/29 08:11:08;;;;;;;21.23;14.43;;;10.80;99.90;;;;;;5059164;28;20554;-64
2021/10/29 08:13:36;;;;;;;19.83;13.97;;;10.80;99.90;;;;;;5065635;28;20320;-64
2021/10/29 08:16:05;;;;;;;18.83;14.67;;;10.90;99.90;;;;;;5069172;28;20679;-64
2021/10/29 08:18:40;;;;;;;19.73;14.87;;;11.00;99.90;;;;;;5067208;28;20786;-63
2021/10/29 08:21:13;;;;;;;17.47;14.10;;;11.20;99.90;;;;;;5070294;28;20245;-64
2021/10/29 08:23:42;;;;;;;19.63;13.77;;;11.30;99.90;;;;;;5070422;28;20319;-64
2021/10/29 08:26:12;;;;;;;18.57;13.83;;;11.40;99.90;;;;;;5070792;28;20259;-64
2021/10/29 08:28:40;;;;;;;17.87;13.47;;;11.50;99.90;;;;;;5052979;28;20243;-64
2021/10/29 08:31:08;;;;;;;19.30;14.50;;;11.60;99.90;;;;;;5055379;28;20622;-64
2021/10/29 08:33:37;;;;;;;18.20;13.60;;;11.70;99.90;;;;;;5071339;28;20235;-64
2021/10/29 08:36:06;;;;;;;20.67;14.67;;;11.80;99.90;;;;;;5059626;28;20772;-64
2021/10/29 08:38:36;;;;;;;17.20;13.13;;;11.80;99.90;;;;;;5063126;28;20571;-64
2021/10/29 08:41:24;;;;;;;18.20;14.60;;;11.90;99.90;;;;;;5056623;28;20239;-70
2021/10/29 08:43:53;;;;;;;20.10;14.33;;;11.80;99.90;;;;;;5058775;28;20268;-68
2021/10/29 08:46:22;;;;;;;18.57;14.43;;;11.90;99.90;;;;;;5049285;28;20447;-69
2021/10/29 08:48:52;;;;;;;18.77;14.17;;;11.80;99.90;;;;;;5054959;28;20752;-68
2021/10/29 08:51:21;;;;;;;16.60;13.57;;;11.90;99.90;;;;;;5053398;28;20232;-68
2021/10/29 08:53:52;;;;;;;15.97;13.77;;;12.00;99.90;;;;;;5063470;28;20227;-68
2021/10/29 08:56:20;;;;;;;17.10;12.83;;;12.10;99.90;;;;;;5057820;28;20271;-68
2021/10/29 08:59:08;;;;;;;20.50;14.37;;;12.30;99.90;;;;;;5054714;28;20792;-68
2021/10/29 09:02:06;;;;;;;17.43;14.07;;;12.40;99.90;;;;;;5051858;28;20331;-68
2021/10/29 09:04:42;;;;;;;17.67;13.47;;;12.50;99.90;;;;;;5028879;28;20325;-67
2021/10/29 09:10:22;;;;;;;18.50;12.90;;;12.80;99.90;;;;;;5057964;28;20245;-69
2021/10/29 09:32:33;;;;;;;16.80;12.10;;;13.00;99.90;;;;;;5058260;28;20293;-69
2021/10/29 09:35:08;;;;;;;17.00;12.40;;;13.00;99.90;;;;;;5058151;28;20832;-70
2021/10/29 09:37:58;;;;;;;17.07;12.03;;;13.00;99.90;;;;;;5068454;28;20324;-69
2021/10/29 09:40:59;;;;;;;15.97;11.83;;;13.00;99.90;;;;;;5050009;28;20383;-69
2021/10/29 09:43:33;;;;;;;14.60;12.07;;;12.90;99.90;;;;;;5062062;28;20244;-69
2021/10/29 09:46:03;;;;;;;16.47;12.30;;;13.00;99.90;;;;;;5058257;28;20581;-68
2021/10/29 09:48:40;;;;;;;15.27;11.37;;;13.00;99.90;;;;;;5057821;28;20269;-68
2021/10/29 09:51:10;;;;;;;15.37;11.73;;;13.00;99.90;;;;;;5065991;28;20245;-69
2021/10/29 09:53:43;;;;;;;14.30;11.80;;;13.10;99.90;;;;;;5062326;28;20252;-69
2021/10/29 09:56:15;;;;;;;15.43;10.70;;;13.10;99.90;;;;;;5068099;28;20579;-69
2021/10/29 09:58:46;;;;;;;14.50;10.60;;;13.20;99.90;;;;;;5067114;28;20265;-69
2021/10/29 10:01:16;;;;;;;13.73;10.90;;;13.30;99.90;;;;;;5060720;28;20233;-69
2021/10/29 10:03:46;;;;;;;13.40;10.37;;;13.40;99.90;;;;;;5062593;28;20583;-68
2021/10/29 10:06:14;;;;;;;13.00;10.40;;;13.50;99.90;;;;;;5066505;28;20511;-69
2021/10/29 10:08:43;;;;;;;13.17;10.10;;;13.50;99.90;;;;;;5060212;28;20241;-68
2021/10/29 10:11:12;;;;;;;11.33;9.27;;;13.60;99.90;;;;;;5064035;28;20226;-69
2021/10/29 10:13:41;;;;;;;11.60;9.17;;;13.80;99.90;;;;;;5068474;28;20254;-68
2021/10/29 10:16:14;;;;;;;12.67;9.47;;;14.00;99.90;;;;;;5061223;28;20242;-67
2021/10/29 10:18:42;;;;;;;11.07;9.30;;;14.20;99.90;;;;;;5062945;28;20325;-67
2021/10/29 10:21:13;;;;;;;13.53;10.33;;;14.30;99.90;;;;;;5055510;28;20596;-69
2021/10/29 10:23:46;;;;;;;10.87;9.43;;;14.40;99.90;;;;;;5068470;28;20638;-68
2021/10/29 10:26:23;;;;;;;12.43;9.13;;;14.80;99.90;;;;;;5059027;28;20240;-68
2021/10/29 10:29:08;;;;;;;11.63;9.30;;;15.00;99.90;;;;;;5055251;28;20375;-69
2021/10/29 10:40:45;;;;;;;10.67;8.33;;;15.80;99.90;;;;;;5066042;28;20295;-67
2021/10/29 10:43:34;;;;;;;9.27;8.20;;;15.80;99.90;;;;;;5064618;28;20261;-68
2021/10/29 10:46:12;;;;;;;10.47;8.07;;;15.90;99.90;;;;;;5059599;28;20572;-68
2021/10/29 10:48:48;;;;;;;9.90;8.33;;;16.10;99.90;;;;;;5066358;28;20239;-69
2021/10/29 10:51:53;;;;;;;11.23;7.87;;;16.00;99.90;;;;;;5067532;28;20318;-69
2021/10/29 10:54:29;;;;;;;9.63;7.30;;;16.30;99.90;;;;;;5067124;28;20746;-69
2021/10/29 10:57:09;;;;;;;12.80;7.70;;;16.40;99.90;;;;;;5057373;28;20643;-68
2021/10/29 10:59:47;;;;;;;10.47;7.30;;;16.60;99.90;;;;;;5066304;28;20292;-69
2021/10/29 11:10:42;;;;;;;7.30;5.80;;;16.90;99.90;;;;;;5035910;28;20480;-68
2021/10/29 11:13:12;;;;;;;7.57;6.60;;;17.00;99.90;;;;;;5058590;28;20718;-68
2021/10/29 11:15:41;;;;;;;7.97;5.93;;;17.10;99.90;;;;;;5056869;28;20293;-68
2021/10/29 11:18:39;;;;;;;7.37;6.13;;;17.20;99.90;;;;;;5060881;28;20227;-68
2021/10/29 11:21:19;;;;;;;7.80;6.00;;;17.30;99.90;;;;;;5057225;28;20249;-68
2021/10/29 11:23:53;;;;;;;7.33;5.90;;;17.40;99.90;;;;;;5050295;28;20604;-67
2021/10/29 11:26:28;;;;;;;6.90;6.00;;;17.40;99.90;;;;;;5056045;28;20227;-67
2021/10/29 11:29:02;;;;;;;7.50;6.37;;;17.30;99.90;;;;;;5044486;28;20320;-67
2021/10/29 11:31:32;;;;;;;9.63;6.20;;;17.30;99.90;;;;;;5056866;28;20865;-68
2021/10/29 11:34:02;;;;;;;6.40;5.43;;;17.30;99.90;;;;;;5052632;28;20235;-69
2021/10/29 11:36:35;;;;;;;6.93;5.37;;;17.30;99.90;;;;;;5056761;28;20241;-68
2021/10/29 11:39:06;;;;;;;7.27;5.83;;;17.30;99.90;;;;;;5057082;28;20742;-67
2021/10/29 11:41:37;;;;;;;6.60;5.27;;;17.40;99.90;;;;;;5056950;28;20245;-67
2021/10/29 11:44:08;;;;;;;5.63;4.50;;;17.40;99.90;;;;;;5052698;28;20710;-68
2021/10/29 11:46:37;;;;;;;6.90;4.60;;;17.20;99.90;;;;;;5056795;28;20499;-67
2021/10/29 11:49:08;;;;;;;5.30;4.67;;;17.20;99.90;;;;;;5055953;28;20257;-68
2021/10/29 11:51:39;;;;;;;7.10;5.03;;;17.10;99.90;;;;;;5056803;28;21048;-68
2021/10/29 11:54:16;;;;;;;5.73;5.23;;;17.10;99.90;;;;;;5052036;28;21026;-68
2021/10/29 11:57:02;;;;;;;7.10;5.23;;;17.10;99.90;;;;;;5056801;28;20304;-67
2021/10/29 11:59:55;;;;;;;7.23;5.43;;;17.10;99.90;;;;;;5057174;28;20235;-68
2021/10/29 12:08:00;;;;;;;6.60;4.83;;;17.30;99.90;;;;;;5076117;28;20837;-68
2021/10/29 12:10:28;;;;;;;7.13;5.40;;;17.30;99.90;;;;;;5075631;28;20748;-68
2021/10/29 12:12:57;;;;;;;5.93;5.00;;;17.30;99.90;;;;;;5072155;28;20238;-67
2021/10/29 12:15:26;;;;;;;7.57;5.10;;;17.20;99.90;;;;;;5077031;28;20853;-68
2021/10/29 12:17:58;;;;;;;6.43;5.10;;;17.20;99.90;;;;;;5075981;28;20334;-67
2021/10/29 12:20:31;;;;;;;5.43;4.93;;;17.20;99.90;;;;;;5075322;28;20245;-67
2021/10/29 12:23:06;;;;;;;6.33;4.97;;;17.20;99.90;;;;;;5069308;28;20249;-68
2021/10/29 12:25:40;;;;;;;6.50;5.53;;;17.20;99.90;;;;;;5076499;28;20237;-68
2021/10/29 12:28:13;;;;;;;9.93;5.23;;;17.30;99.90;;;;;;5076677;28;20234;-68
2021/10/29 12:30:47;;;;;;;6.57;5.37;;;17.30;99.90;;;;;;5076599;28;20230;-67
2021/10/29 12:34:00;;;;;;;7.30;5.60;;;17.40;99.90;;;;;;5071202;28;20229;-68
2021/10/29 13:02:03;;;;;;;6.03;5.43;;;17.30;99.90;;;;;;5051164;28;20376;-67
2021/10/29 13:04:38;;;;;;;6.63;5.23;;;17.30;99.90;;;;;;5042825;28;20719;-68
2021/10/29 13:07:07;;;;;;;6.60;5.10;;;17.40;99.90;;;;;;5055985;28;20241;-68
2021/10/29 13:09:37;;;;;;;7.60;5.53;;;17.40;99.90;;;;;;5055148;28;20238;-68
2021/10/29 13:12:13;;;;;;;7.80;5.37;;;17.40;99.90;;;;;;5052687;28;20246;-68
2021/10/29 13:14:45;;;;;;;6.67;4.80;;;17.40;99.90;;;;;;5053362;28;20724;-67
2021/10/29 13:17:18;;;;;;;7.83;5.20;;;17.40;99.90;;;;;;5051188;28;20330;-68
2021/10/29 13:23:11;;;;;;;6.90;5.00;;;17.30;99.90;;;;;;5039253;28;20642;-67
2021/10/29 13:28:29;;;;;;;5.50;4.80;;;17.20;99.90;;;;;;5048117;28;20234;-68
2021/10/29 13:36:39;;;;;;;5.27;4.47;;;17.20;99.90;;;;;;5055500;28;20373;-70
2021/10/29 13:53:22;;;;;;;7.23;5.17;;;17.30;99.90;;;;;;5051960;28;20325;-68
2021/10/29 13:56:04;;;;;;;5.60;5.07;;;17.30;99.90;;;;;;5061362;28;20323;-68
2021/10/29 14:29:04;;;;;;;8.77;4.23;;;16.70;99.90;;;;;;5059924;28;20592;-69
2021/10/29 14:31:37;;;;;;;7.63;4.37;;;16.70;99.90;;;;;;5060688;28;20338;-68
2021/10/29 14:34:11;;;;;;;7.37;4.00;;;16.60;99.90;;;;;;5052816;28;20235;-68
2021/10/29 14:36:48;;;;;;;6.50;3.83;;;16.60;99.90;;;;;;5060863;28;20275;-69
2021/10/29 14:39:21;;;;;;;4.80;4.23;;;16.50;99.90;;;;;;5060380;28;20266;-69
2021/10/29 14:41:57;;;;;;;4.53;4.07;;;16.50;99.90;;;;;;5060627;28;20672;-67
2021/10/29 14:44:31;;;;;;;4.87;3.50;;;16.40;99.90;;;;;;5051973;28;20318;-69
2021/10/29 14:47:09;;;;;;;4.70;3.87;;;16.40;99.90;;;;;;5064917;28;20239;-70
2021/10/29 14:49:50;;;;;;;5.50;4.33;;;16.30;99.90;;;;;;5053751;28;20318;-69
2021/10/29 15:25:33;;;;;;;4.70;3.90;;;15.70;99.90;;;;;;5062766;28;20258;-69
2021/10/29 15:28:12;;;;;;;5.03;4.07;;;15.60;99.90;;;;;;5063146;28;20326;-70
2021/10/29 15:30:45;;;;;;;5.73;4.00;;;15.60;99.90;;;;;;5062767;28;20318;-70
2021/10/29 15:41:49;;;;;;;7.07;4.47;;;15.40;99.90;;;;;;5062953;28;20736;-70
2021/10/29 15:44:20;;;;;;;4.97;4.23;;;15.30;99.90;;;;;;5061570;28;20288;-69
2021/10/29 15:46:57;;;;;;;6.23;4.17;;;15.30;99.90;;;;;;5062370;28;20616;-70
2021/10/29 15:52:12;;;;;;;4.97;4.50;;;15.20;99.90;;;;;;5060225;28;20658;-70
2021/10/29 15:54:47;;;;;;;5.30;4.27;;;15.20;99.90;;;;;;5062109;28;20284;-70
2021/10/29 15:57:21;;;;;;;7.73;4.53;;;15.10;99.90;;;;;;5061669;28;20257;-71
2021/10/29 15:59:57;;;;;;;5.50;4.10;;;15.10;99.90;;;;;;5062051;28;20325;-69
2021/10/29 16:02:36;;;;;;;5.57;4.93;;;15.00;99.90;;;;;;5061886;28;20262;-70
2021/10/29 16:19:04;;;;;;;6.47;4.83;;;14.60;99.90;;;;;;5015362;28;20269;-69
2021/10/29 16:21:32;;;;;;;8.60;5.00;;;14.50;99.90;;;;;;5047521;28;20243;-69
2021/10/29 16:24:00;;;;;;;5.40;4.87;;;14.50;99.90;;;;;;5047885;28;20705;-69
2021/10/29 16:26:31;;;;;;;5.53;4.87;;;14.40;99.90;;;;;;5046401;28;20249;-69
2021/10/29 16:28:59;;;;;;;8.73;4.97;;;14.40;99.90;;;;;;5051637;28;20246;-70
2021/10/29 16:31:27;;;;;;;9.50;5.00;;;14.30;99.90;;;;;;5050572;28;20234;-69
2021/10/29 16:33:56;;;;;;;7.37;4.60;;;14.30;99.90;;;;;;5049170;28;20239;-69
2021/10/29 16:36:24;;;;;;;5.47;4.80;;;14.30;99.90;;;;;;5048147;28;21865;-69
2021/10/29 16:38:52;;;;;;;7.47;4.80;;;14.20;99.90;;;;;;5046366;28;20241;-69
2021/10/29 16:41:20;;;;;;;7.20;4.73;;;14.20;99.90;;;;;;5049583;28;20250;-69
2021/10/29 16:43:50;;;;;;;7.33;5.00;;;14.20;99.90;;;;;;5049913;28;20441;-68
2021/10/29 16:46:18;;;;;;;6.07;4.83;;;14.10;99.90;;;;;;5050066;28;20273;-69
2021/10/29 16:48:46;;;;;;;7.50;5.00;;;14.10;99.90;;;;;;5056957;28;20277;-69
2021/10/29 16:51:15;;;;;;;5.93;4.60;;;14.00;99.90;;;;;;5064944;28;20311;-70
2021/10/29 16:53:44;;;;;;;6.43;4.73;;;14.00;99.90;;;;;;5065330;28;20361;-70